EKGR weather

Grenaa Airport
Grenaa, Central Jutland, Denmark

Public forecast

Using degrees Celsius for public forecast. Weather courtesy of forecast.io.

METAR (pilot weather report)

Closest report is Aarhus Airport, 13.4 nm (24.9 km) SW. Retrieved 2019/05/26 10:20 UTC (24 minutes ago):

EKAH 261020Z AUTO 27012KT 240V300 9999NDV BKN022/// 13/08 Q1004

TAF (pilot weather forecast)

Closest forecast is Aarhus Airport, 13.4 nm (24.9 km) SW. Retrieved 2019/05/26 06:18 UTC (4 hours ago):

TAF EKAH 260510Z 2606/2706 27010KT 9999 BKN006 TEMPO 2606/2609 4000 -RA BKN012 BECMG 2609/2610 BKN020 BECMG 2622/2624 VRB02KT 3000 -RADZ BR BKN005